Sydney, Nova Scotia

8:28 PM ADT on October 22, 2014 (GMT -0300)
Sydney | Change Station
CLOSE
Current Station
Airport
Location: Sydney,
Elevation: 203 ft
Nearby Weather Stations

Elev 203 ft 46.17 °N, 60.05 °W | Updated 28 minutes ago

Scattered Clouds
Scattered Clouds
50 °F
Feels Like 50 °F
N
9
Wind Variable Wind from East

Tomorrow is forecast to be nearly the same temperature as today.

Today
High -- | Low -- °F
--% Chance of Precip.
Yesterday
High -- | Low -- °F
Precip. -- in
7:26 AM 6:01 PM
Waning Crescent, 1% visible
Pressure 30.37 in
Visibility 15.0 miles
Clouds Few 1200 ft
Few 10000 ft
Scattered Clouds 24000 ft
Dew Point 46 °F
Humidity 87%
Rainfall 0.00 in
Snow Depth Not available.
UV 0 out of 12
Pollen Not available.
Air Quality Not available.
Flu Activity Not available.
METAR CYQY 222300Z 08008KT 15SM FEW012 FEW100 SCT240 10/08 A3036 RMK ST1AC1CI1 SLP282

More Conditions Fewer Conditions

Pressure 30.37 in
Visibility 15.0 miles
Clouds Few 1200 ft
Few 10000 ft
Scattered Clouds 24000 ft
Dew Point 46 °F
Humidity 87%
Rainfall 0.00 in
Snow Depth Not available.
UV 0 out of 12
Pollen Not available.
Air Quality Not available.
Flu Activity Not available.
METAR CYQY 222300Z 08008KT 15SM FEW012 FEW100 SCT240 10/08 A3036 RMK ST1AC1CI1 SLP282

More Conditions Fewer Conditions

10-Day Weather Forecast

Almanac

Astronomy

Oct. 22, 2014 Rise Set
Actual Time 7:26 AM ADT 6:01 PM ADT
Civil Twilight 6:56 AM ADT 6:32 PM ADT
Nautical Twilight 6:21 AM ADT 7:07 PM ADT
Astronomical Twilight 5:46 AM ADT 7:41 PM ADT
Moon 5:59 AM ADT 5:28 PM ADT
Length of Visible Light 11h 36m
Length of Day
10h 34m
Tomorrow will be 3m 5s shorter.
Waning Crescent, 1% of the Moon is Illuminated
Today
Waning Crescent
Oct 23
New
Oct 30
First Quarter
Nov 6
Full
Nov 14
Last Quarter

Today's Extremes

Country Highs Country Lows

Community

WunderPhotos

Upload Photos

1,764,078 photos uploaded!

WunderBlogs® & News

Nearby

Snow Depth

Not available.

Earthquake Activity

City Distance Mag. Time & Date
No recent earthquake activity has been reported nearby.
Minimum magnitude displayed is 2.5.

Coastal Water Temperatures

Place Temperature
No Stations Reporting

Nearby Weather Stations